Weather at La Guardia Airport

Public forecast

Using degrees Fahrenheit for public forecast. Weather courtesy of forecast.io.

Current aviation weather report (METAR) for La Guardia Airport

Retrieved 2020/10/22 04:51 UTC (48 minutes ago):

KLGA 220451Z 19004KT 8SM OVC011 19/17 A3021 RMK AO2 SLP231 T01940172 402170167

Aviation forecast (TAF) for La Guardia Airport

Retrieved 2020-10-22 00:45 UTC (5 hours ago):

TAF KLGA 212341Z 2200/2306 19006KT 5SM BR OVC005 TEMPO 2200/2204 2SM BR OVC004 FM220400 21004KT 2SM BR OVC003 TEMPO 2204/2208 1/2SM FG OVC002 FM221300 VRB03KT 5SM BR OVC006 FM221500 03005KT P6SM SCT006 BKN012 FM221700 08004KT P6SM BKN035 FM222200 14004KT P6SM SCT006 BKN013 BKN025